• Join FlightAware (Why Join?)
  • Login
  • US Flag 
08:30AM EDT


 

Airport Tracker/Info


-or-


 

Live Flight TrackerFlight Track Log ✈ AAL1358 ✈ 08-May-2013 ✈ KSEA - KORD

Flight Track Log - Related Links

Times and Time Zones

All times are in EDT time to prevent confusion due to time zone crossing. See the AAL1358 flight status page for this flight to view local times or setup timezone preferences in your user account.

Time Position Orientation Groundspeed Altitude Reporting Facility
EDT Latitude Longitude Course Direction KTS MPH feet Rate Location/Type
07:02PM 47.3910 -122.3080 181° South 192 221 2,100  Level FlightAware
07:02PM 47.3790 -122.3090 183° South 217 250 2,300 1,560 Climbing FlightAware
07:03PM 47.3180 -122.2990 174° South 260 299 3,800 1,200 Climbing FlightAware
07:04PM 47.2940 -122.2670 138° Southeast 263 303 4,000 2,040 Climbing FlightAware
07:04PM 47.3010 -122.2240 76° East 267 307 5,500 3,240 Climbing FlightAware
07:05PM 47.3020 -122.1640 89° East 277 319 6,700 2,640 Climbing FlightAware
07:05PM 47.3090 -122.1350 70° East 275 316 7,500 2,820 Climbing FlightAware
07:05PM 47.3240 -122.0930 62° Northeast 279 321 8,600 2,460 Climbing FlightAware
07:06PM 47.3400 -122.0410 66° East 291 335 9,800 2,220 Climbing FlightAware
07:06PM 47.3610 -121.9620 69° East 316 364 11,200 1,680 Climbing FlightAware
07:07PM 47.3820 -121.8860 68° East 356 410 11,900 2,160 Climbing FlightAware
07:08PM 47.4130 -121.7790 67° East 356 410 14,300 2,760 Climbing FlightAware
07:08PM 47.4290 -121.6790 77° East 369 425 16,100 2,640 Climbing FlightAware
07:09PM 47.4280 -121.5870 91° East 380 437 17,600 2,280 Climbing FlightAware
07:10PM 47.4260 -121.4660 91° East 397 457 19,200 2,160 Climbing FlightAware
07:11PM 47.4240 -121.3500 91° East 404 465 20,900 2,220 Climbing FlightAware
07:11PM 47.4220 -121.2320 91° East 408 470 22,600 2,040 Climbing FlightAware
07:12PM 47.4200 -121.1040 91° East 417 480 24,000 1,800 Climbing FlightAware
07:13PM 47.4180 -120.9820 91° East 427 491 25,200 1,740 Climbing FlightAware
07:13PM 47.4150 -120.8440 92° East 435 501 26,500 1,260 Climbing FlightAware
07:14PM 47.4140 -120.7020 91° East 439 505 27,200 1,440 Climbing FlightAware
07:15PM 47.4100 -120.5760 93° East 449 517 28,700 1,800 Climbing FlightAware
07:16PM 47.4060 -120.4200 92° East 454 522 29,900 1,500 Climbing FlightAware
07:16PM 47.4030 -120.2940 92° East 452 520 31,000 1,500 Climbing FlightAware
07:17PM 47.4000 -120.1730 92° East 453 521 31,900 1,320 Climbing FlightAware
07:18PM 47.3960 -120.0350 92° East 454 522 32,900 1,320 Climbing FlightAware
07:19PM 47.3930 -119.9200 92° East 452 520 33,800 1,380 Climbing FlightAware
07:19PM 47.3890 -119.7910 93° East 447 514 34,800 1,380 Climbing FlightAware
07:20PM 47.3860 -119.6620 92° East 443 510 35,800 900 Climbing FlightAware
07:21PM 47.3810 -119.5090 93° East 441 507 36,300 720 Climbing FlightAware
07:22PM 47.3810 -119.3680 90° East 444 511 37,000 420 Climbing FlightAware
07:22PM 47.3800 -119.2460 91° East 445 512 37,000  Level FlightAware
07:23PM 47.3800 -119.1430 90° East 445 512 37,000  Level FlightAware
07:24PM 47.3800 -119.0400 90° East 445 512 37,000  Level FlightAware
07:24PM 47.3800 -118.9360 90° East 445 512 37,000  Level FlightAware
07:25PM 47.3800 -118.8330 90° East 445 512 37,000  Level FlightAware
07:26PM 47.3800 -118.7040 90° East 445 512 37,000  Level FlightAware
07:26PM 47.3800 -118.6000 90° East 445 512 37,000  Level FlightAware
07:27PM 47.3800 -118.4970 90° East 445 512 37,000  Level FlightAware
07:28PM 47.3800 -118.3930 90° East 445 512 37,000  Level FlightAware
07:28PM 47.3800 -118.2900 90° East 445 512 37,000  Level FlightAware
07:29PM 47.3800 -118.1610 90° East 445 512 37,000  Level FlightAware
07:30PM 47.3800 -118.0570 90° East 445 512 37,000  Level FlightAware
07:31PM 47.3800 -117.9540 90° East 445 512 37,000  Level FlightAware
07:31PM 47.3800 -117.8510 90° East 445 512 37,000  Level FlightAware
07:32PM 47.3636 -117.4669 90° East 445 512 37,000  Level Salt Lake Center
07:33PM 47.3606 -117.2853 91° East 447 514 37,000  Level Salt Lake Center
07:34PM 47.3572 -117.1031 91° East 452 520 37,000  Level Salt Lake Center
07:35PM 47.3536 -116.9197 92° East 455 524 37,000  Level Salt Lake Center
07:36PM 47.3494 -116.7000 92° East 454 522 37,000  Level Salt Lake Center
07:37PM 47.3447 -116.5150 92° East 455 524 37,000  Level Salt Lake Center
07:38PM 47.3403 -116.3300 92° East 455 524 37,000  Level Salt Lake Center
07:39PM 47.3342 -116.1092 92° East 452 520 37,000  Level Seattle Center
07:40PM 47.3292 -115.9253 92° East 452 520 37,000  Level Seattle Center
07:41PM 47.3231 -115.7414 93° East 452 520 37,000  Level Seattle Center
07:42PM 47.3183 -115.5569 92° East 451 519 37,000  Level Seattle Center
07:43PM 47.3122 -115.3736 93° East 451 519 37,000  Level Seattle Center
07:44PM 47.3058 -115.1900 93° East 451 519 37,000  Level Seattle Center
07:45PM 47.2983 -115.0069 93° East 451 519 37,000  Level Seattle Center
07:46PM 47.2908 -114.8228 93° East 452 520 37,000 -60 Level Seattle Center
07:47PM 47.2836 -114.6389 93° East 453 521 36,900  Descending Seattle Center
07:48PM 47.2742 -114.4214 94° East 449 517 37,000  Climbing Seattle Center
07:49PM 47.2658 -114.2375 94° East 452 520 37,000  Level Seattle Center
07:50PM 47.2583 -114.0536 93° East 453 521 37,000  Level Salt Lake Center
07:52PM 47.2492 -113.8697 94° East 455 524 37,000  Level Salt Lake Center
07:53PM 47.2411 -113.6858 94° East 454 522 37,000  Level Salt Lake Center
07:54PM 47.2311 -113.5011 94° East 456 525 37,000  Level Salt Lake Center
07:55PM 47.2206 -113.2806 94° East 455 524 37,000  Level Salt Lake Center
07:56PM 47.2092 -113.0956 95° East 461 531 37,000  Level Salt Lake Center
07:57PM 47.1994 -112.9139 94° East 456 525 37,000  Level Salt Lake Center
07:58PM 47.1894 -112.7292 94° East 456 525 37,000 -60 Level Salt Lake Center
07:59PM 47.1772 -112.5439 95° East 458 527 36,900  Descending Salt Lake Center
08:00PM 47.1681 -112.3608 94° East 453 521 37,000  Climbing Salt Lake Center
08:01PM 47.1550 -112.1358 95° East 462 532 37,000  Level Salt Lake Center
08:02PM 47.1417 -111.9503 96° East 461 531 37,000  Level Salt Lake Center
08:03PM 47.1303 -111.7608 95° East 467 537 37,000  Level Salt Lake Center
08:04PM 47.1169 -111.5733 96° East 468 539 37,000 -60 Level Salt Lake Center
08:05PM 47.1036 -111.3867 96° East 466 536 36,900  Descending Salt Lake Center
08:06PM 47.0911 -111.1986 96° East 467 537 37,000  Climbing Salt Lake Center
08:07PM 47.0742 -110.9714 96° East 471 542 36,900  Descending Salt Lake Center
08:08PM 47.0603 -110.7819 96° East 472 543 37,000  Climbing Salt Lake Center
08:09PM 47.0458 -110.5914 96° East 472 543 37,000  Level Salt Lake Center
08:10PM 47.0308 -110.4003 96° East 474 545 37,000  Level Salt Lake Center
08:11PM 47.0167 -110.2083 96° East 476 548 37,000  Level Salt Lake Center
08:12PM 46.9997 -109.9783 96° East 477 549 37,000  Level Salt Lake Center
08:13PM 46.9839 -109.7875 97° East 475 547 37,000  Level Salt Lake Center
08:14PM 46.9683 -109.5961 97° East 475 547 37,000  Level Salt Lake Center
08:15PM 46.9514 -109.4036 97° East 478 550 37,000  Level Salt Lake Center
08:16PM 46.9347 -109.2108 97° East 480 552 37,000  Level Salt Lake Center
08:17PM 46.9119 -108.9969 99° East 470 541 37,000  Level Salt Lake Center
08:18PM 46.8956 -108.8139 97° East 474 545 37,000  Level Salt Lake Center
08:19PM 46.8747 -108.5981 98° East 478 550 37,000  Level Salt Lake Center
08:20PM 46.8581 -108.4133 97° East 480 552 37,000  Level Salt Lake Center
08:21PM 46.8392 -108.2281 98° East 480 552 37,000  Level Salt Lake Center
08:22PM 46.8186 -108.0133 98° East 479 551 37,000  Level Salt Lake Center
08:23PM 46.8000 -107.8264 98° East 485 558 37,000 180 Level Salt Lake Center
08:24PM 46.7772 -107.6117 99° East 482 555 37,400 540 Climbing Salt Lake Center
08:25PM 46.7583 -107.4281 98° East 480 552 38,200 780 Climbing Salt Lake Center
08:27PM 46.7358 -107.2125 99° East 480 552 39,000 360 Climbing Salt Lake Center
08:28PM 46.7161 -107.0289 99° East 480 552 39,000  Level Salt Lake Center
08:29PM 46.6947 -106.8442 100° East 481 554 39,000  Level Salt Lake Center
08:30PM 46.6717 -106.6317 99° East 479 551 39,000  Level Salt Lake Center
08:31PM 46.6500 -106.4483 100° East 478 550 39,000  Level Salt Lake Center
08:32PM 46.6250 -106.2311 99° East 483 556 39,000  Level Salt Lake Center
08:33PM 46.6022 -106.0494 100° East 481 554 39,000  Level Salt Lake Center
08:34PM 46.5797 -105.8661 100° East 482 555 39,000  Level Salt Lake Center
08:35PM 46.5533 -105.6492 100° East 484 557 39,000  Level Salt Lake Center
08:36PM 46.5300 -105.4667 100° East 483 556 39,000  Level Salt Lake Center
08:37PM 46.5044 -105.2550 100° East 480 552 39,000  Level Salt Lake Center
08:38PM 46.4817 -105.0731 100° East 479 551 39,000  Level Salt Lake Center
08:39PM 46.4547 -104.8619 100° East 477 549 39,000 -60 Level Salt Lake Center
08:40PM 46.4314 -104.6739 100° East 475 547 38,900  Descending Salt Lake Center
08:41PM 46.4069 -104.4903 101° East 471 542 39,000  Climbing Salt Lake Center
08:42PM 46.3828 -104.3042 101° East 471 542 39,000  Level Salt Lake Center
08:43PM 46.3575 -104.1211 101° East 468 539 39,000  Level Salt Lake Center
08:44PM 46.3322 -103.9347 101° East 472 543 39,000  Level Salt Lake Center
08:45PM 46.3072 -103.7489 101° East 474 545 39,000  Level Salt Lake Center
08:46PM 46.2806 -103.5633 102° East 474 545 39,000 -60 Level Salt Lake Center
08:47PM 46.2497 -103.3375 101° East 476 548 38,900  Descending Salt Lake Center
08:48PM 46.2344 -103.2300 102° East 479 551 39,000  Climbing Minneapolis Center
08:49PM 46.2072 -103.0447 102° East 477 549 39,000  Level Minneapolis Center
08:50PM 46.1794 -102.8578 102° East 478 550 39,000  Level Minneapolis Center
08:51PM 46.1467 -102.6347 102° East 477 549 39,000  Level Minneapolis Center
08:52PM 46.1189 -102.4481 102° East 478 550 39,000  Level Minneapolis Center
08:53PM 46.0875 -102.2500 103° East 475 547 39,000  Level Minneapolis Center
08:54PM 46.0597 -102.0656 102° East 473 544 39,000  Level Minneapolis Center
08:55PM 46.0306 -101.8806 103° East 473 544 39,000  Level Minneapolis Center
08:56PM 46.0011 -101.6964 103° East 473 544 39,000  Level Minneapolis Center
08:57PM 45.9722 -101.5119 103° East 474 545 39,000  Level Minneapolis Center
08:58PM 45.9431 -101.3292 103° East 471 542 39,000  Level Minneapolis Center
08:59PM 45.9067 -101.1103 103° East 470 541 39,000  Level Minneapolis Center
09:00PM 45.8767 -100.9294 103° East 468 539 39,000  Level Minneapolis Center
09:01PM 45.8458 -100.7483 104° East 467 537 39,000  Level Minneapolis Center
09:02PM 45.8147 -100.5678 104° East 467 537 39,000  Level Minneapolis Center
09:03PM 45.7842 -100.3886 104° East 465 535 39,000  Level Minneapolis Center
09:04PM 45.7536 -100.2042 103° East 469 540 39,000  Level Minneapolis Center
09:05PM 45.7228 -100.0231 104° East 467 537 39,000  Level Minneapolis Center
09:06PM 45.6836 -99.8033 104° East 471 542 39,000  Level Minneapolis Center
09:07PM 45.6511 -99.6214 104° East 470 541 39,000  Level Minneapolis Center
09:13PM 45.4630 -98.6080 104° East 471 542 39,000  Level FlightAware
09:14PM 45.4400 -98.4870 105° East 469 540 39,000  Level FlightAware
09:14PM 45.4140 -98.3580 106° East 469 540 39,000  Level FlightAware
09:15PM 45.3820 -98.2420 111° Southeast 470 541 39,000  Level FlightAware
09:16PM 45.3500 -98.1220 111° Southeast 468 539 39,000  Level FlightAware
09:16PM 45.3230 -98.0250 112° Southeast 468 539 39,000  Level FlightAware
09:17PM 45.2800 -97.8740 112° Southeast 467 537 39,000  Level FlightAware
09:18PM 45.2470 -97.7570 112° Southeast 466 536 39,000  Level FlightAware
09:19PM 45.2180 -97.6540 112° Southeast 465 535 39,000  Level FlightAware
09:19PM 45.1780 -97.5130 112° Southeast 464 534 39,000  Level FlightAware
09:20PM 45.1470 -97.4020 112° Southeast 464 534 39,000  Level FlightAware
09:21PM 45.1110 -97.2780 112° Southeast 464 534 39,000  Level FlightAware
09:21PM 45.0780 -97.1630 112° Southeast 463 533 39,000  Level FlightAware
09:22PM 45.0470 -97.0550 112° Southeast 462 532 39,000  Level FlightAware
09:23PM 45.0090 -96.9260 113° Southeast 462 532 39,000  Level FlightAware
09:23PM 44.9770 -96.8160 112° Southeast 461 531 39,000  Level FlightAware
09:24PM 44.9460 -96.7080 112° Southeast 460 529 39,000  Level FlightAware
09:25PM 44.9090 -96.5830 113° Southeast 459 528 39,000  Level FlightAware
09:26PM 44.8760 -96.4730 113° Southeast 458 527 39,000  Level FlightAware
09:26PM 44.8400 -96.3510 113° Southeast 457 526 39,000  Level FlightAware
09:27PM 44.8060 -96.2350 112° Southeast 456 525 39,000  Level FlightAware
09:28PM 44.7700 -96.1150 113° Southeast 456 525 39,000  Level FlightAware
09:28PM 44.7370 -96.0070 113° Southeast 455 524 39,000  Level FlightAware
09:29PM 44.7050 -95.9020 113° Southeast 454 522 39,000  Level FlightAware
09:30PM 44.6660 -95.7720 113° Southeast 455 524 39,000  Level FlightAware
09:30PM 44.6340 -95.6660 113° Southeast 456 525 39,000  Level FlightAware
09:31PM 44.5960 -95.5450 114° Southeast 456 525 39,000  Level FlightAware
09:32PM 44.5630 -95.4390 114° Southeast 458 527 39,000  Level FlightAware
09:33PM 44.5220 -95.3330 118° Southeast 460 529 39,000  Level FlightAware
09:33PM 44.4750 -95.2120 119° Southeast 462 532 39,000  Level FlightAware
09:34PM 44.4340 -95.1050 118° Southeast 463 533 39,000  Level FlightAware
09:35PM 44.3910 -94.9930 118° Southeast 465 535 39,000  Level FlightAware
09:35PM 44.3500 -94.8870 118° Southeast 465 535 39,000  Level FlightAware
09:36PM 44.3010 -94.7640 119° Southeast 466 536 39,000  Level FlightAware
09:37PM 44.2600 -94.6580 118° Southeast 466 536 39,000  Level FlightAware
09:37PM 44.2190 -94.5530 119° Southeast 466 536 39,000  Level FlightAware
09:38PM 44.1780 -94.4500 119° Southeast 467 537 39,000  Level FlightAware
09:39PM 44.1320 -94.3350 119° Southeast 468 539 39,000  Level FlightAware
09:40PM 44.0900 -94.2290 119° Southeast 468 539 39,000  Level FlightAware
09:40PM 44.0410 -94.1070 119° Southeast 470 541 39,000  Level FlightAware
09:41PM 43.9990 -94.0020 119° Southeast 471 542 39,000  Level FlightAware
09:42PM 43.9560 -93.8960 119° Southeast 473 544 39,000  Level FlightAware
09:42PM 43.9090 -93.7790 119° Southeast 475 547 39,000  Level FlightAware
09:43PM 43.8660 -93.6730 119° Southeast 477 549 39,000  Level FlightAware
09:44PM 43.8180 -93.5550 119° Southeast 478 550 39,000  Level FlightAware
09:44PM 43.7740 -93.4480 120° Southeast 480 552 39,000 -300 Level FlightAware
09:45PM 43.7300 -93.3420 120° Southeast 477 549 38,600 -780 Descending FlightAware
09:46PM 43.6800 -93.2220 120° Southeast 463 533 37,900 -1,020 Descending FlightAware
09:47PM 43.6380 -93.1210 120° Southeast 459 528 37,200 -1,020 Descending FlightAware
09:47PM 43.5920 -93.0070 119° Southeast 459 528 36,500 -960 Descending FlightAware
09:48PM 43.5500 -92.9070 120° Southeast 454 522 35,900 -1,020 Descending FlightAware
09:49PM 43.5090 -92.8090 120° Southeast 451 519 35,200 -660 Descending FlightAware
09:49PM 43.4590 -92.6920 120° Southeast 453 521 35,000 -180 Descending FlightAware
09:50PM 43.4190 -92.5960 120° Southeast 454 522 35,000  Level FlightAware
09:51PM 43.3720 -92.4860 120° Southeast 456 525 35,000  Level FlightAware
09:51PM 43.3300 -92.3860 120° Southeast 457 526 35,000  Level FlightAware
09:52PM 43.2850 -92.2820 121° Southeast 458 527 35,000  Level FlightAware
09:53PM 43.2400 -92.1760 120° Southeast 460 529 35,000  Level FlightAware
09:54PM 43.1970 -92.0740 120° Southeast 461 531 35,000  Level FlightAware
09:54PM 43.1520 -91.9720 121° Southeast 463 533 35,000  Level FlightAware
09:55PM 43.1070 -91.8660 120° Southeast 464 534 35,000  Level FlightAware
09:56PM 43.0620 -91.7640 121° Southeast 466 536 35,000 -1,140 Level FlightAware
09:56PM 43.0110 -91.6450 120° Southeast 464 534 33,400 -2,640 Descending FlightAware
09:57PM 42.9720 -91.5420 117° Southeast 470 541 31,300 -1,740 Descending FlightAware
09:58PM 42.9540 -91.4050 100° East 475 547 31,000 -240 Descending FlightAware
09:58PM 42.9370 -91.2950 102° East 475 547 31,000  Level FlightAware
09:59PM 42.9170 -91.1740 103° East 476 548 31,000  Level FlightAware
10:00PM 42.8950 -91.0420 103° East 476 548 31,000  Level FlightAware
10:01PM 42.8760 -90.9250 102° East 475 547 31,000  Level FlightAware
10:01PM 42.8550 -90.8010 103° East 475 547 31,000 -300 Level FlightAware
10:02PM 42.8340 -90.6750 103° East 473 544 30,600 -2,160 Descending FlightAware
10:03PM 42.8110 -90.5410 103° East 484 557 28,000 -2,880 Descending FlightAware
10:03PM 42.7910 -90.4200 103° East 486 559 26,600 -2,040 Descending FlightAware
10:04PM 42.7710 -90.3070 104° East 475 547 25,300 -1,560 Descending FlightAware
10:05PM 42.7500 -90.1810 103° East 442 509 24,400 -960 Descending FlightAware
10:05PM 42.7310 -90.0740 104° East 431 496 24,000 -300 Descending FlightAware
10:06PM 42.7130 -89.9690 103° East 430 495 24,000  Level FlightAware
10:07PM 42.6920 -89.8500 103° East 435 501 24,000  Level FlightAware
10:08PM 42.6730 -89.7450 104° East 435 501 24,000 -660 Level FlightAware
10:08PM 42.6520 -89.6240 103° East 431 496 23,100 -1,380 Descending FlightAware
10:09PM 42.6330 -89.5180 104° East 423 487 22,100 -1,440 Descending FlightAware
10:10PM 42.6150 -89.4170 104° East 413 475 21,200 -1,380 Descending FlightAware
10:10PM 42.5950 -89.3070 104° East 410 472 20,200 -1,440 Descending FlightAware
10:11PM 42.5770 -89.2090 104° East 403 464 19,200 -1,680 Descending FlightAware
10:12PM 42.5560 -89.0980 104° East 392 451 17,900 -1,920 Descending FlightAware
10:12PM 42.5280 -89.0060 112° Southeast 397 457 16,500 -2,280 Descending FlightAware
10:13PM 42.5000 -88.9140 112° Southeast 391 450 14,900 -2,220 Descending FlightAware
10:14PM 42.4720 -88.8180 112° Southeast 375 432 13,400 -2,400 Descending FlightAware
10:15PM 42.4450 -88.7320 113° Southeast 363 418 11,500 -2,280 Descending FlightAware
10:15PM 42.4170 -88.6390 112° Southeast 332 382 10,200 -1,380 Descending FlightAware
10:16PM 42.4030 -88.5920 112° Southeast 306 352 9,900 -1,140 Descending FlightAware
10:16PM 42.3890 -88.5430 111° Southeast 296 341 9,200 -1,020 Descending FlightAware
10:17PM 42.3730 -88.4910 113° Southeast 291 335 8,900 -240 Descending FlightAware
10:17PM 42.3610 -88.4510 112° Southeast 290 334 9,000 -660 Climbing FlightAware
10:18PM 42.3420 -88.3990 116° Southeast 293 337 8,300 -1,440 Descending FlightAware
10:18PM 42.3230 -88.3510 118° Southeast 291 335 7,600 -1,440 Descending FlightAware
10:19PM 42.3080 -88.3120 117° Southeast 287 330 7,000 -780 Descending FlightAware
10:19PM 42.2840 -88.2670 126° Southeast 283 326 6,900 -720 Descending FlightAware
10:20PM 42.2560 -88.2340 139° Southeast 283 326 6,300 -1,320 Descending FlightAware
10:20PM 42.2300 -88.2040 139° Southeast 281 323 5,700 -1,380 Descending FlightAware
10:20PM 42.2150 -88.1870 140° Southeast 280 322 5,400 -1,200 Descending FlightAware
10:21PM 42.1860 -88.1550 141° Southeast 280 322 4,800 -1,200 Descending FlightAware
10:21PM 42.1600 -88.1250 139° Southeast 274 315 4,300 -1,080 Descending FlightAware
10:21PM 42.1510 -88.1150 141° Southeast 269 310 4,200 -540 Descending FlightAware
10:22PM 42.1200 -88.0790 139° Southeast 235 270 3,900 -480 Descending FlightAware
10:22PM 42.1080 -88.0660 141° Southeast 228 262 3,800 -480 Descending FlightAware
10:23PM 42.0900 -88.0450 139° Southeast 206 237 3,600 -1,020 Descending FlightAware
10:23PM 42.0690 -88.0220 141° Southeast 187 215 2,900 -1,500 Descending FlightAware
10:23PM 42.0630 -88.0140 135° Southeast 186 214 2,600 -1,200 Descending FlightAware
10:24PM 42.0430 -87.9920 141° Southeast 162 186 2,100 -1,020 Descending FlightAware
10:24PM 42.0300 -87.9780 141° Southeast 143 165 1,700 -900 Descending FlightAware
10:25PM 42.0150 -87.9610 140° Southeast 144 166 1,300 -840 Descending FlightAware
10:25PM 42.0040 -87.9490 141° Southeast 145 167 1,000 -840 Descending FlightAware
10:25PM 41.9900 -87.9330 140° Southeast 148 170 600 -840 Descending FlightAware